Terminal Aerodrome Forecast
Issued by NWS

Home | Current Version | Previous Version | Text Only | Print | Product List | Glossary On
Versions: 1 2 3 4 5 6 7 8 9 10 11 12 13 14 15 16 17 18 19 20 21 22
530
FTUS43 KDLH 271923 AAA
TAFHYR
TAF AMD
KHYR 271923Z 2719/2818 08006KT 5SM -SHRA VCTS SCT012CB OVC090
      TEMPO 2720/2723 VRB04G15KT 3SM -TSRA SCT008 BKN012CB OVC050
     FM280000 04003KT 6SM BR VCSH SCT010 BKN060
     FM280400 VRB02KT 3SM BR BKN060
      TEMPO 2808/2812 3/4SM BR SCT004
     FM281200 08006KT P6SM SCT040=

USA.gov is the U.S. government's official web portal to all federal, state and local government web resources and services.